sensor_id;sensor_type;location;lat;lon;timestamp;pressure;altitude;pressure_sealevel;temperature;humidity
18813;BME280;9534;51.140;6.296;2024-03-23T00:55:38;67426.13;;;6.48;100.00
18813;BME280;9534;51.140;6.296;2024-03-23T00:59:40;67419.72;;;6.40;100.00
18813;BME280;9534;51.140;6.296;2024-03-23T01:03:42;67413.19;;;6.39;100.00
18813;BME280;9534;51.140;6.296;2024-03-23T01:07:44;67402.41;;;6.30;100.00
18813;BME280;9534;51.140;6.296;2024-03-23T01:11:47;67395.41;;;6.21;100.00
18813;BME280;9534;51.140;6.296;2024-03-23T01:15:49;67378.81;;;6.05;100.00
18813;BME280;9534;51.140;6.296;2024-03-23T01:19:52;67370.44;;;6.00;100.00
18813;BME280;9534;51.140;6.296;2024-03-23T01:23:54;67374.25;;;6.01;100.00
18813;BME280;9534;51.140;6.296;2024-03-23T01:27:57;67368.00;;;5.95;100.00
18813;BME280;9534;51.140;6.296;2024-03-23T01:31:59;67368.28;;;5.91;100.00
18813;BME280;9534;51.140;6.296;2024-03-23T01:36:01;67364.84;;;5.88;100.00
18813;BME280;9534;51.140;6.296;2024-03-23T01:40:03;67358.31;;;5.87;100.00
18813;BME280;9534;51.140;6.296;2024-03-23T01:44:07;67360.63;;;5.89;100.00
18813;BME280;9534;51.140;6.296;2024-03-23T01:48:09;67358.06;;;5.91;100.00
18813;BME280;9534;51.140;6.296;2024-03-23T01:52:13;67341.59;;;5.77;100.00
18813;BME280;9534;51.140;6.296;2024-03-23T01:56:15;67348.09;;;5.78;100.00
18813;BME280;9534;51.140;6.296;2024-03-23T02:00:19;67355.63;;;5.87;100.00
18813;BME280;9534;51.140;6.296;2024-03-23T02:04:21;67341.59;;;5.77;100.00
18813;BME280;9534;51.140;6.296;2024-03-23T02:08:23;67360.91;;;5.94;100.00
18813;BME280;9534;51.140;6.296;2024-03-23T02:12:25;67366.84;;;5.94;100.00
18813;BME280;9534;51.140;6.296;2024-03-23T02:16:28;67370.13;;;5.95;100.00
18813;BME280;9534;51.140;6.296;2024-03-23T02:20:29;67359.47;;;5.88;100.00
18813;BME280;9534;51.140;6.296;2024-03-23T02:24:33;67360.63;;;5.89;100.00
18813;BME280;9534;51.140;6.296;2024-03-23T02:28:37;67360.91;;;5.94;100.00
18813;BME280;9534;51.140;6.296;2024-03-23T02:32:39;67378.81;;;6.05;100.00
18813;BME280;9534;51.140;6.296;2024-03-23T02:36:40;67371.56;;;6.01;100.00
18813;BME280;9534;51.140;6.296;2024-03-23T02:40:43;67369.72;;;5.97;100.00
18813;BME280;9534;51.140;6.296;2024-03-23T02:44:46;67367.44;;;5.95;100.00
18813;BME280;9534;51.140;6.296;2024-03-23T02:48:48;67367.56;;;5.97;100.00
18813;BME280;9534;51.140;6.296;2024-03-23T02:52:50;67370.84;;;5.98;100.00
18813;BME280;9534;51.140;6.296;2024-03-23T02:56:53;67365.16;;;5.93;100.00
18813;BME280;9534;51.140;6.296;2024-03-23T03:00:55;67360.63;;;5.89;100.00
18813;BME280;9534;51.140;6.296;2024-03-23T03:04:57;67356.38;;;5.90;100.00
18813;BME280;9534;51.140;6.296;2024-03-23T03:08:59;67361.34;;;5.92;100.00
18813;BME280;9534;51.140;6.296;2024-03-23T03:13:03;67355.25;;;5.89;100.00
18813;BME280;9534;51.140;6.296;2024-03-23T03:17:05;67362.31;;;5.90;100.00
18813;BME280;9534;51.140;6.296;2024-03-23T03:21:07;67361.91;;;5.92;100.00
18813;BME280;9534;51.140;6.296;2024-03-23T03:25:11;67353.41;;;5.94;100.00
18813;BME280;9534;51.140;6.296;2024-03-23T03:29:14;67360.63;;;5.89;100.00
18813;BME280;9534;51.140;6.296;2024-03-23T03:33:16;67365.59;;;5.91;100.00
18813;BME280;9534;51.140;6.296;2024-03-23T03:37:18;67359.47;;;5.88;100.00
18813;BME280;9534;51.140;6.296;2024-03-23T03:41:20;67353.78;;;5.83;100.00
18813;BME280;9534;51.140;6.296;2024-03-23T03:45:24;67348.72;;;5.88;100.00
18813;BME280;9534;51.140;6.296;2024-03-23T03:49:26;67352.06;;;5.81;100.00
18813;BME280;9534;51.140;6.296;2024-03-23T03:53:28;67351.09;;;5.83;100.00
18813;BME280;9534;51.140;6.296;2024-03-23T03:57:31;67354.50;;;5.86;100.00
18813;BME280;9534;51.140;6.296;2024-03-23T04:01:34;67352.94;;;5.87;100.00
18813;BME280;9534;51.140;6.296;2024-03-23T04:05:36;67346.84;;;5.84;100.00
18813;BME280;9534;51.140;6.296;2024-03-23T04:09:38;67354.50;;;5.86;100.00
18813;BME280;9534;51.140;6.296;2024-03-23T04:13:40;67351.81;;;5.86;100.00
18813;BME280;9534;51.140;6.296;2024-03-23T04:17:44;67357.59;;;5.84;100.00
18813;BME280;9534;51.140;6.296;2024-03-23T04:21:46;67351.81;;;5.86;100.00
18813;BME280;9534;51.140;6.296;2024-03-23T04:25:48;67355.34;;;5.82;100.00
18813;BME280;9534;51.140;6.296;2024-03-23T04:29:51;67345.00;;;5.80;100.00
18813;BME280;9534;51.140;6.296;2024-03-23T04:33:54;67345.41;;;5.78;100.00
18813;BME280;9534;51.140;6.296;2024-03-23T04:37:56;67348.81;;;5.81;100.00
18813;BME280;9534;51.140;6.296;2024-03-23T04:41:59;67348.81;;;5.81;100.00
18813;BME280;9534;51.140;6.296;2024-03-23T04:46:02;67352.63;;;5.82;100.00
18813;BME280;9534;51.140;6.296;2024-03-23T04:50:06;67354.34;;;5.83;100.00
18813;BME280;9534;51.140;6.296;2024-03-23T04:54:08;67355.25;;;5.89;100.00
18813;BME280;9534;51.140;6.296;2024-03-23T04:58:10;67351.97;;;5.88;100.00
18813;BME280;9534;51.140;6.296;2024-03-23T05:02:12;67359.06;;;5.90;100.00
18813;BME280;9534;51.140;6.296;2024-03-23T05:06:17;67360.63;;;5.89;100.00
18813;BME280;9534;51.140;6.296;2024-03-23T05:10:19;67353.78;;;5.83;100.00
18813;BME280;9534;51.140;6.296;2024-03-23T05:14:21;67350.78;;;5.78;100.00
18813;BME280;9534;51.140;6.296;2024-03-23T05:18:23;67339.72;;;5.73;100.00
18813;BME280;9534;51.140;6.296;2024-03-23T05:22:28;67350.38;;;5.80;100.00
18813;BME280;9534;51.140;6.296;2024-03-23T05:26:31;67346.97;;;5.77;100.00
18813;BME280;9534;51.140;6.296;2024-03-23T05:30:34;67334.03;;;5.68;100.00
18813;BME280;9534;51.140;6.296;2024-03-23T05:34:36;67331.06;;;5.63;100.00
18813;BME280;9534;51.140;6.296;2024-03-23T05:38:40;67319.28;;;5.55;100.00
18813;BME280;9534;51.140;6.296;2024-03-23T05:42:42;67314.91;;;5.53;100.00
18813;BME280;9534;51.140;6.296;2024-03-23T05:46:44;67313.59;;;5.50;100.00
18813;BME280;9534;51.140;6.296;2024-03-23T05:50:49;67301.81;;;5.42;100.00
18813;BME280;9534;51.140;6.296;2024-03-23T05:54:52;67306.38;;;5.46;100.00
18813;BME280;9534;51.140;6.296;2024-03-23T05:58:55;67310.59;;;5.45;100.00
18813;BME280;9534;51.140;6.296;2024-03-23T06:02:57;67300.38;;;5.36;100.00
18813;BME280;9534;51.140;6.296;2024-03-23T06:06:59;67301.50;;;5.37;100.00
18813;BME280;9534;51.140;6.296;2024-03-23T06:11:02;67299.81;;;5.35;100.00
18813;BME280;9534;51.140;6.296;2024-03-23T06:15:04;67301.69;;;5.39;100.00
18813;BME280;9534;51.140;6.296;2024-03-23T06:19:10;67310.59;;;5.45;100.00
18813;BME280;9534;51.140;6.296;2024-03-23T06:23:12;67315.16;;;5.49;100.00
18813;BME280;9534;51.140;6.296;2024-03-23T06:27:17;67314.00;;;5.48;100.00
18813;BME280;9534;51.140;6.296;2024-03-23T06:31:19;67316.03;;;5.54;100.00
18813;BME280;9534;51.140;6.296;2024-03-23T06:35:21;67328.78;;;5.61;100.00
18813;BME280;9534;51.140;6.296;2024-03-23T06:39:23;67337.69;;;5.66;100.00
18813;BME280;9534;51.140;6.296;2024-03-23T06:43:27;67353.47;;;5.78;100.00
18813;BME280;9534;51.140;6.296;2024-03-23T06:47:29;67360.63;;;5.89;100.00
18813;BME280;9534;51.140;6.296;2024-03-23T06:51:31;67375.66;;;6.07;100.00
18813;BME280;9534;51.140;6.296;2024-03-23T06:55:33;67404.94;;;6.27;100.00
18813;BME280;9534;51.140;6.296;2024-03-23T06:59:36;67425.25;;;6.43;100.00
18813;BME280;9534;51.140;6.296;2024-03-23T07:03:39;67410.78;;;6.35;100.00
18813;BME280;9534;51.140;6.296;2024-03-23T07:07:41;67410.19;;;6.34;100.00
18813;BME280;9534;51.140;6.296;2024-03-23T07:11:43;67420.84;;;6.41;100.00
18813;BME280;9534;51.140;6.296;2024-03-23T07:15:52;67426.84;;;6.51;100.00
18813;BME280;9534;51.140;6.296;2024-03-23T07:19:56;67428.53;;;6.53;100.00
18813;BME280;9534;51.140;6.296;2024-03-23T07:23:58;67445.16;;;6.60;100.00
18813;BME280;9534;51.140;6.296;2024-03-23T07:28:00;67468.63;;;6.83;100.00
18813;BME280;9534;51.140;6.296;2024-03-23T07:32:04;67482.97;;;6.98;100.00
18813;BME280;9534;51.140;6.296;2024-03-23T07:36:06;67507.28;;;7.17;100.00
18813;BME280;9534;51.140;6.296;2024-03-23T07:40:09;67523.50;;;7.36;100.00
18813;BME280;9534;51.140;6.296;2024-03-23T07:44:12;67563.91;;;7.71;100.00
18813;BME280;9534;51.140;6.296;2024-03-23T07:48:15;67578.13;;;7.84;100.00
18813;BME280;9534;51.140;6.296;2024-03-23T07:52:17;67622.97;;;8.21;100.00
18813;BME280;9534;51.140;6.296;2024-03-23T07:56:19;67685.22;;;8.77;100.00
18813;BME280;9534;51.140;6.296;2024-03-23T08:00:22;67722.81;;;9.10;100.00
18813;BME280;9534;51.140;6.296;2024-03-23T08:04:26;67690.19;;;8.79;100.00
18813;BME280;9534;51.140;6.296;2024-03-23T08:08:28;67749.47;;;9.31;100.00
18813;BME280;9534;51.140;6.296;2024-03-23T08:12:30;67769.44;;;9.49;100.00
18813;BME280;9534;51.140;6.296;2024-03-23T08:16:32;67779.53;;;9.55;100.00
18813;BME280;9534;51.140;6.296;2024-03-23T08:20:36;67734.66;;;9.18;100.00
18813;BME280;9534;51.140;6.296;2024-03-23T08:24:38;67693.19;;;8.84;100.00
18813;BME280;9534;51.140;6.296;2024-03-23T08:28:40;67700.91;;;8.96;100.00
18813;BME280;9534;51.140;6.296;2024-03-23T08:32:42;67702.31;;;8.92;100.00
18813;BME280;9534;51.140;6.296;2024-03-23T08:36:45;67699.47;;;8.90;100.00
18813;BME280;9534;51.140;6.296;2024-03-23T08:40:47;67753.19;;;9.39;100.00
18813;BME280;9534;51.140;6.296;2024-03-23T08:44:49;67840.75;;;10.11;100.00
18813;BME280;9534;51.140;6.296;2024-03-23T08:48:51;67830.03;;;10.04;100.00
18813;BME280;9534;51.140;6.296;2024-03-23T08:52:55;67731.66;;;9.13;100.00
18813;BME280;9534;51.140;6.296;2024-03-23T08:56:57;67710.28;;;8.99;100.00
18813;BME280;9534;51.140;6.296;2024-03-23T09:01:02;67766.84;;;9.51;100.00
18813;BME280;9534;51.140;6.296;2024-03-23T09:05:05;67717.97;;;9.01;100.00
18813;BME280;9534;51.140;6.296;2024-03-23T09:09:09;67664.00;;;8.57;100.00
18813;BME280;9534;51.140;6.296;2024-03-23T09:13:11;67653.03;;;8.45;100.00
18813;BME280;9534;51.140;6.296;2024-03-23T09:17:13;67683.34;;;8.73;100.00
18813;BME280;9534;51.140;6.296;2024-03-23T09:21:16;67799.81;;;9.78;100.00
18813;BME280;9534;51.140;6.296;2024-03-23T09:25:19;67882.25;;;10.45;100.00
18813;BME280;9534;51.140;6.296;2024-03-23T09:29:21;67896.53;;;10.67;100.00
18813;BME280;9534;51.140;6.296;2024-03-23T09:33:23;68021.91;;;11.71;100.00
18813;BME280;9534;51.140;6.296;2024-03-23T09:37:26;67964.47;;;11.26;100.00
18813;BME280;9534;51.140;6.296;2024-03-23T09:41:29;68003.16;;;11.57;100.00
18813;BME280;9534;51.140;6.296;2024-03-23T09:45:31;67947.91;;;11.11;100.00
18813;BME280;9534;51.140;6.296;2024-03-23T09:49:35;67794.38;;;9.68;100.00
18813;BME280;9534;51.140;6.296;2024-03-23T09:53:38;67826.59;;;10.01;100.00
18813;BME280;9534;51.140;6.296;2024-03-23T09:57:41;67887.38;;;10.49;100.00
18813;BME280;9534;51.140;6.296;2024-03-23T10:01:43;67826.59;;;10.01;100.00
18813;BME280;9534;51.140;6.296;2024-03-23T10:05:45;67817.47;;;9.93;100.00
18813;BME280;9534;51.140;6.296;2024-03-23T10:09:47;67887.94;;;10.50;100.00
18813;BME280;9534;51.140;6.296;2024-03-23T10:13:53;67940.47;;;10.96;100.00
18813;BME280;9534;51.140;6.296;2024-03-23T10:17:57;67862.56;;;10.32;100.00
18813;BME280;9534;51.140;6.296;2024-03-23T10:21:59;67935.50;;;10.94;100.00
18813;BME280;9534;51.140;6.296;2024-03-23T10:26:12;67458.78;;;6.72;100.00
18813;BME280;9534;51.140;6.296;2024-03-23T10:30:15;67290.56;;;5.25;100.00
18813;BME280;9534;51.140;6.296;2024-03-23T10:34:19;67266.03;;;5.01;100.00
18813;BME280;9534;51.140;6.296;2024-03-23T10:38:26;67291.72;;;5.26;100.00
18813;BME280;9534;51.140;6.296;2024-03-23T10:42:28;67298.09;;;5.34;100.00
18813;BME280;9534;51.140;6.296;2024-03-23T10:46:34;67316.13;;;5.47;100.00
18813;BME280;9534;51.140;6.296;2024-03-23T10:50:38;67358.75;;;5.85;100.00
18813;BME280;9534;51.140;6.296;2024-03-23T10:54:40;67506.72;;;7.17;100.00
18813;BME280;9534;51.140;6.296;2024-03-23T10:58:44;67663.00;;;8.58;100.00
18813;BME280;9534;51.140;6.296;2024-03-23T11:02:49;67789.66;;;9.71;100.00
18813;BME280;9534;51.140;6.296;2024-03-23T11:06:51;67940.78;;;11.01;100.00
18813;BME280;9534;51.140;6.296;2024-03-23T11:10:54;67998.19;;;11.46;100.00
18813;BME280;9534;51.140;6.296;2024-03-23T11:15:13;68013.28;;;11.64;100.00
18813;BME280;9534;51.140;6.296;2024-03-23T11:19:35;67976.16;;;11.31;100.00
18813;BME280;9534;51.140;6.296;2024-03-23T11:23:37;67950.47;;;11.09;100.00
18813;BME280;9534;51.140;6.296;2024-03-23T11:27:39;67718.97;;;9.09;100.00
18813;BME280;9534;51.140;6.296;2024-03-23T11:31:45;67476.28;;;6.85;100.00
18813;BME280;9534;51.140;6.296;2024-03-23T11:35:49;67385.03;;;6.10;100.00
18813;BME280;9534;51.140;6.296;2024-03-23T11:39:52;67394.69;;;6.18;100.00
18813;BME280;9534;51.140;6.296;2024-03-23T11:43:55;67415.88;;;6.39;100.00
18813;BME280;9534;51.140;6.296;2024-03-23T11:48:07;67440.91;;;6.61;100.00
18813;BME280;9534;51.140;6.296;2024-03-23T11:52:10;67411.75;;;6.33;100.00
18813;BME280;9534;51.140;6.296;2024-03-23T11:56:12;67373.53;;;5.98;100.00
18813;BME280;9534;51.140;6.296;2024-03-23T12:00:21;67351.81;;;5.86;100.00
18813;BME280;9534;51.140;6.296;2024-03-23T12:04:27;67365.16;;;5.93;100.00
18813;BME280;9534;51.140;6.296;2024-03-23T12:08:30;67406.06;;;6.28;100.00
18813;BME280;9534;51.140;6.296;2024-03-23T12:12:33;67427.97;;;6.52;100.00
18813;BME280;9534;51.140;6.296;2024-03-23T12:16:35;67497.75;;;7.11;100.00
18813;BME280;9534;51.140;6.296;2024-03-23T12:20:37;67561.06;;;7.69;100.00
18813;BME280;9534;51.140;6.296;2024-03-23T12:24:41;67712.28;;;8.96;100.00
18813;BME280;9534;51.140;6.296;2024-03-23T12:28:46;67692.47;;;8.81;100.00
18813;BME280;9534;51.140;6.296;2024-03-23T12:32:48;67788.22;;;9.65;100.00
18813;BME280;9534;51.140;6.296;2024-03-23T12:36:50;67854.00;;;10.25;100.00
18813;BME280;9534;51.140;6.296;2024-03-23T12:40:53;67830.03;;;10.04;100.00
18813;BME280;9534;51.140;6.296;2024-03-23T12:44:55;67917.94;;;10.81;100.00
18813;BME280;9534;51.140;6.296;2024-03-23T12:48:56;67916.06;;;10.77;100.00
18813;BME280;9534;51.140;6.296;2024-03-23T12:52:58;67956.75;;;11.14;100.00
18813;BME280;9534;51.140;6.296;2024-03-23T12:57:02;67847.16;;;10.19;100.00
18813;BME280;9534;51.140;6.296;2024-03-23T13:01:05;67875.25;;;10.46;100.00
18813;BME280;9534;51.140;6.296;2024-03-23T13:05:08;67800.78;;;9.76;100.00
18813;BME280;9534;51.140;6.296;2024-03-23T13:09:10;67712.84;;;8.97;100.00
18813;BME280;9534;51.140;6.296;2024-03-23T13:13:14;67665.84;;;8.60;100.00
18813;BME280;9534;51.140;6.296;2024-03-23T13:17:16;67641.06;;;8.34;100.00
18813;BME280;9534;51.140;6.296;2024-03-23T13:21:18;67516.38;;;7.25;100.00
18813;BME280;9534;51.140;6.296;2024-03-23T13:25:19;67495.91;;;7.07;100.00
18813;BME280;9534;51.140;6.296;2024-03-23T13:29:23;67533.44;;;7.40;100.00
18813;BME280;9534;51.140;6.296;2024-03-23T13:33:24;67678.78;;;8.69;100.00
18813;BME280;9534;51.140;6.296;2024-03-23T13:37:26;67844.16;;;10.14;100.00
18813;BME280;9534;51.140;6.296;2024-03-23T13:41:28;67843.75;;;10.16;100.00
18813;BME280;9534;51.140;6.296;2024-03-23T13:45:32;67893.38;;;10.69;100.00
18813;BME280;9534;51.140;6.296;2024-03-23T13:49:34;67995.16;;;11.50;100.00
18813;BME280;9534;51.140;6.296;2024-03-23T13:53:36;67640.63;;;8.36;100.00
18813;BME280;9534;51.140;6.296;2024-03-23T13:57:38;67537.31;;;7.50;100.00
18813;BME280;9534;51.140;6.296;2024-03-23T14:01:42;67369.44;;;6.01;100.00
18813;BME280;9534;51.140;6.296;2024-03-23T14:05:44;67378.09;;;6.02;100.00
18813;BME280;9534;51.140;6.296;2024-03-23T14:09:47;67346.66;;;5.72;100.00
18813;BME280;9534;51.140;6.296;2024-03-23T14:13:49;67329.91;;;5.62;100.00
18813;BME280;9534;51.140;6.296;2024-03-23T14:17:53;67326.19;;;5.54;100.00
18813;BME280;9534;51.140;6.296;2024-03-23T14:21:55;67405.22;;;6.32;100.00
18813;BME280;9534;51.140;6.296;2024-03-23T14:25:58;67580.09;;;7.81;100.00
18813;BME280;9534;51.140;6.296;2024-03-23T14:30:00;67701.03;;;8.89;100.00
18813;BME280;9534;51.140;6.296;2024-03-23T14:34:04;67754.75;;;9.38;100.00
18813;BME280;9534;51.140;6.296;2024-03-23T14:38:06;67606.59;;;8.09;100.00
18813;BME280;9534;51.140;6.296;2024-03-23T14:42:08;67556.94;;;7.63;100.00
18813;BME280;9534;51.140;6.296;2024-03-23T14:46:11;67521.66;;;7.32;100.00
18813;BME280;9534;51.140;6.296;2024-03-23T14:50:15;67526.31;;;7.29;100.00
18813;BME280;9534;51.140;6.296;2024-03-23T14:54:17;67534.72;;;7.43;100.00
18813;BME280;9534;51.140;6.296;2024-03-23T14:58:19;67561.06;;;7.69;100.00
18813;BME280;9534;51.140;6.296;2024-03-23T15:02:21;67580.81;;;7.84;100.00
18813;BME280;9534;51.140;6.296;2024-03-23T15:06:26;67607.03;;;8.07;100.00
18813;BME280;9534;51.140;6.296;2024-03-23T15:10:28;67669.13;;;8.61;100.00
18813;BME280;9534;51.140;6.296;2024-03-23T15:14:30;67753.03;;;9.37;100.00
18813;BME280;9534;51.140;6.296;2024-03-23T15:18:32;67580.41;;;7.86;100.00
18813;BME280;9534;51.140;6.296;2024-03-23T15:22:37;67574.56;;;7.78;100.00
18813;BME280;9534;51.140;6.296;2024-03-23T15:26:40;67542.84;;;7.53;100.00
18813;BME280;9534;51.140;6.296;2024-03-23T15:30:42;67520.94;;;7.29;100.00
18813;BME280;9534;51.140;6.296;2024-03-23T15:34:44;67453.81;;;6.70;100.00
18813;BME280;9534;51.140;6.296;2024-03-23T15:38:48;67387.63;;;6.17;100.00
18813;BME280;9534;51.140;6.296;2024-03-23T15:42:50;67384.03;;;6.12;100.00
18813;BME280;9534;51.140;6.296;2024-03-23T15:46:55;67403.78;;;6.26;100.00
18813;BME280;9534;51.140;6.296;2024-03-23T15:50:58;67472.44;;;6.84;100.00
18813;BME280;9534;51.140;6.296;2024-03-23T15:55:02;67613.44;;;8.15;100.00
18813;BME280;9534;51.140;6.296;2024-03-23T15:59:06;67753.03;;;9.37;100.00
18813;BME280;9534;51.140;6.296;2024-03-23T16:03:08;67811.34;;;9.90;100.00
18813;BME280;9534;51.140;6.296;2024-03-23T16:07:10;67858.28;;;10.24;100.00
18813;BME280;9534;51.140;6.296;2024-03-23T16:11:14;67726.66;;;9.11;100.00
18813;BME280;9534;51.140;6.296;2024-03-23T16:15:16;67744.19;;;9.24;100.00
18813;BME280;9534;51.140;6.296;2024-03-23T16:19:17;67752.91;;;9.34;100.00
18813;BME280;9534;51.140;6.296;2024-03-23T16:23:19;67736.22;;;9.17;100.00
18813;BME280;9534;51.140;6.296;2024-03-23T16:27:23;67751.75;;;9.33;100.00
18813;BME280;9534;51.140;6.296;2024-03-23T16:31:25;67780.25;;;9.58;100.00
18813;BME280;9534;51.140;6.296;2024-03-23T16:35:27;67790.22;;;9.62;100.00
18813;BME280;9534;51.140;6.296;2024-03-23T16:39:30;67675.81;;;8.64;100.00
18813;BME280;9534;51.140;6.296;2024-03-23T16:43:33;67607.03;;;8.07;100.00
18813;BME280;9534;51.140;6.296;2024-03-23T16:47:35;67573.44;;;7.77;100.00
18813;BME280;9534;51.140;6.296;2024-03-23T16:51:39;67549.94;;;7.54;100.00
18813;BME280;9534;51.140;6.296;2024-03-23T16:55:41;67534.59;;;7.41;100.00
18813;BME280;9534;51.140;6.296;2024-03-23T16:59:44;67531.19;;;7.38;100.00
18813;BME280;9534;51.140;6.296;2024-03-23T17:03:46;67531.63;;;7.45;100.00
18813;BME280;9534;51.140;6.296;2024-03-23T17:07:49;67548.25;;;7.53;100.00
18813;BME280;9534;51.140;6.296;2024-03-23T17:11:54;67557.91;;;7.61;100.00
18813;BME280;9534;51.140;6.296;2024-03-23T17:15:58;67466.47;;;6.84;100.00
18813;BME280;9534;51.140;6.296;2024-03-23T17:20:01;67472.44;;;6.84;100.00
18813;BME280;9534;51.140;6.296;2024-03-23T17:24:04;67523.22;;;7.31;100.00
18813;BME280;9534;51.140;6.296;2024-03-23T17:28:06;67424.25;;;6.44;100.00
18813;BME280;9534;51.140;6.296;2024-03-23T17:32:11;67389.00;;;6.13;100.00
18813;BME280;9534;51.140;6.296;2024-03-23T17:36:12;67353.78;;;5.83;100.00
18813;BME280;9534;51.140;6.296;2024-03-23T17:40:14;67339.84;;;5.66;100.00
18813;BME280;9534;51.140;6.296;2024-03-23T17:44:17;67328.38;;;5.63;100.00
18813;BME280;9534;51.140;6.296;2024-03-23T17:48:20;67303.38;;;5.41;100.00
18813;BME280;9534;51.140;6.296;2024-03-23T17:52:22;67303.66;;;5.36;100.00
18813;BME280;9534;51.140;6.296;2024-03-23T17:56:24;67296.66;;;5.28;100.00
18813;BME280;9534;51.140;6.296;2024-03-23T18:00:27;67276.13;;;5.17;100.00
18813;BME280;9534;51.140;6.296;2024-03-23T18:04:30;67255.84;;;5.01;100.00
18813;BME280;9534;51.140;6.296;2024-03-23T18:08:32;67250.28;;;4.89;100.00
18813;BME280;9534;51.140;6.296;2024-03-23T18:12:34;67255.53;;;4.96;100.00
18813;BME280;9534;51.140;6.296;2024-03-23T18:16:36;67253.13;;;4.92;100.00
18813;BME280;9534;51.140;6.296;2024-03-23T18:20:40;67237.22;;;4.78;100.00
18813;BME280;9534;51.140;6.296;2024-03-23T18:24:42;67234.53;;;4.78;100.00
18813;BME280;9534;51.140;6.296;2024-03-23T18:28:47;67225.03;;;4.72;100.00
18813;BME280;9534;51.140;6.296;2024-03-23T18:32:51;67223.19;;;4.68;100.00
18813;BME280;9534;51.140;6.296;2024-03-23T18:36:54;67212.97;;;4.59;100.00
18813;BME280;9534;51.140;6.296;2024-03-23T18:40:58;67209.56;;;4.56;100.00
18813;BME280;9534;51.140;6.296;2024-03-23T18:45:00;67211.13;;;4.55;100.00
18813;BME280;9534;51.140;6.296;2024-03-23T18:49:02;67200.81;;;4.53;100.00
18813;BME280;9534;51.140;6.296;2024-03-23T18:53:07;67193.28;;;4.44;100.00
18813;BME280;9534;51.140;6.296;2024-03-23T18:57:10;67193.13;;;4.42;100.00
18813;BME280;9534;51.140;6.296;2024-03-23T19:01:12;67183.91;;;4.31;100.00
18813;BME280;9534;51.140;6.296;2024-03-23T19:05:14;67196.78;;;4.40;100.00
18813;BME280;9534;51.140;6.296;2024-03-23T19:09:18;67193.13;;;4.42;100.00
18813;BME280;9534;51.140;6.296;2024-03-23T19:13:20;67201.63;;;4.49;100.00
18813;BME280;9534;51.140;6.296;2024-03-23T19:17:22;67196.53;;;4.45;100.00
18813;BME280;9534;51.140;6.296;2024-03-23T19:21:24;67202.34;;;4.52;100.00
18813;BME280;9534;51.140;6.296;2024-03-23T19:25:28;67211.28;;;4.58;100.00
18813;BME280;9534;51.140;6.296;2024-03-23T19:29:30;67222.06;;;4.67;100.00
18813;BME280;9534;51.140;6.296;2024-03-23T19:33:34;67237.38;;;4.81;100.00
18813;BME280;9534;51.140;6.296;2024-03-23T19:37:36;67244.75;;;4.87;100.00
18813;BME280;9534;51.140;6.296;2024-03-23T19:41:39;67244.75;;;4.87;100.00
18813;BME280;9534;51.140;6.296;2024-03-23T19:45:42;67240.78;;;4.84;100.00
18813;BME280;9534;51.140;6.296;2024-03-23T19:49:44;67253.25;;;4.94;100.00
18813;BME280;9534;51.140;6.296;2024-03-23T19:53:49;67251.72;;;4.95;100.00
18813;BME280;9534;51.140;6.296;2024-03-23T19:57:53;67259.22;;;4.95;100.00
18813;BME280;9534;51.140;6.296;2024-03-23T20:01:55;67244.75;;;4.87;100.00
18813;BME280;9534;51.140;6.296;2024-03-23T20:05:56;67252.13;;;4.93;100.00
18813;BME280;9534;51.140;6.296;2024-03-23T20:09:59;67255.44;;;5.03;100.00
18813;BME280;9534;51.140;6.296;2024-03-23T20:14:02;67275.84;;;5.12;100.00
18813;BME280;9534;51.140;6.296;2024-03-23T20:18:04;67287.03;;;5.19;100.00
18813;BME280;9534;51.140;6.296;2024-03-23T20:22:06;67293.56;;;5.30;100.00
18813;BME280;9534;51.140;6.296;2024-03-23T20:26:08;67293.88;;;5.35;100.00
18813;BME280;9534;51.140;6.296;2024-03-23T20:30:13;67300.38;;;5.36;100.00
18813;BME280;9534;51.140;6.296;2024-03-23T20:34:15;67300.69;;;5.41;100.00
18813;BME280;9534;51.140;6.296;2024-03-23T20:38:18;67302.22;;;5.40;100.00
18813;BME280;9534;51.140;6.296;2024-03-23T20:42:20;67294.88;;;5.33;100.00
18813;BME280;9534;51.140;6.296;2024-03-23T20:46:24;67303.78;;;5.39;100.00
18813;BME280;9534;51.140;6.296;2024-03-23T20:50:26;67300.97;;;5.36;100.00
18813;BME280;9534;51.140;6.296;2024-03-23T20:54:28;67308.50;;;5.45;100.00
18813;BME280;9534;51.140;6.296;2024-03-23T20:58:31;67315.16;;;5.49;100.00
18813;BME280;9534;51.140;6.296;2024-03-23T21:02:33;67321.41;;;5.54;100.00
18813;BME280;9534;51.140;6.296;2024-03-23T21:06:36;67315.44;;;5.54;100.00
18813;BME280;9534;51.140;6.296;2024-03-23T21:10:47;67311.47;;;5.50;100.00
18813;BME280;9534;51.140;6.296;2024-03-23T21:14:49;67315.16;;;5.49;100.00
18813;BME280;9534;51.140;6.296;2024-03-23T21:18:52;67304.91;;;5.40;100.00
18813;BME280;9534;51.140;6.296;2024-03-23T21:22:55;67296.97;;;5.33;100.00
18813;BME280;9534;51.140;6.296;2024-03-23T21:26:56;67297.38;;;5.31;100.00
18813;BME280;9534;51.140;6.296;2024-03-23T21:30:58;67289.03;;;5.26;100.00
18813;BME280;9534;51.140;6.296;2024-03-23T21:35:01;67303.38;;;5.41;100.00
18813;BME280;9534;51.140;6.296;2024-03-23T21:39:03;67305.81;;;5.45;100.00
18813;BME280;9534;51.140;6.296;2024-03-23T21:43:07;67299.25;;;5.35;100.00
18813;BME280;9534;51.140;6.296;2024-03-23T21:47:10;67293.16;;;5.32;100.00
18813;BME280;9534;51.140;6.296;2024-03-23T21:51:13;67295.84;;;5.32;100.00
18813;BME280;9534;51.140;6.296;2024-03-23T21:55:15;67291.72;;;5.26;100.00
18813;BME280;9534;51.140;6.296;2024-03-23T21:59:16;67279.53;;;5.20;100.00
18813;BME280;9534;51.140;6.296;2024-03-23T22:03:18;67282.22;;;5.20;100.00
18813;BME280;9534;51.140;6.296;2024-03-23T22:07:23;67284.47;;;5.22;100.00
18813;BME280;9534;51.140;6.296;2024-03-23T22:11:27;67279.97;;;5.18;100.00
18813;BME280;9534;51.140;6.296;2024-03-23T22:15:30;67281.09;;;5.19;100.00
18813;BME280;9534;51.140;6.296;2024-03-23T22:19:32;67273.16;;;5.12;100.00
18813;BME280;9534;51.140;6.296;2024-03-23T22:23:35;67264.19;;;5.06;100.00
18813;BME280;9534;51.140;6.296;2024-03-23T22:27:37;67250.03;;;4.94;100.00
18813;BME280;9534;51.140;6.296;2024-03-23T22:31:39;67243.94;;;4.91;100.00
18813;BME280;9534;51.140;6.296;2024-03-23T22:35:44;67249.31;;;4.91;100.00